createdAt,value
2022-12-13T00:01:47.617Z,3.38
2022-12-13T00:04:15.910Z,1.90
2022-12-13T00:06:44.549Z,3.80
2022-12-13T00:09:16.082Z,2.58
2022-12-13T00:11:44.469Z,1.90
2022-12-13T00:14:14.527Z,2.97
2022-12-13T00:16:45.867Z,2.22
2022-12-13T00:19:14.468Z,3.20
2022-12-13T00:21:42.633Z,2.28
2022-12-13T00:24:10.683Z,2.40
2022-12-13T00:26:40.589Z,2.35
2022-12-13T00:29:09.574Z,3.13
2022-12-13T00:34:26.425Z,2.50
2022-12-13T00:36:55.174Z,2.40
2022-12-13T00:39:23.280Z,2.05
2022-12-13T00:41:53.548Z,2.67
2022-12-13T00:44:21.631Z,2.63
2022-12-13T00:46:51.649Z,2.20
2022-12-13T00:49:19.746Z,3.05
2022-12-13T00:51:49.414Z,2.13
2022-12-13T00:54:17.573Z,2.67
2022-12-13T00:56:45.701Z,1.70
2022-12-13T00:59:16.277Z,2.97
2022-12-13T01:01:44.661Z,2.65
2022-12-13T01:04:13.099Z,2.55
2022-12-13T01:06:43.232Z,2.70
2022-12-13T01:09:17.167Z,2.83
2022-12-13T01:11:46.203Z,1.98
2022-12-13T01:14:16.175Z,2.58
2022-12-13T01:16:44.501Z,1.75
2022-12-13T01:19:12.711Z,2.40
2022-12-13T01:21:40.948Z,1.73
2022-12-13T01:24:09.327Z,2.38
2022-12-13T01:26:37.360Z,2.15
2022-12-13T01:29:05.971Z,2.70
2022-12-13T01:31:37.476Z,2.28
2022-12-13T01:34:10.514Z,2.35
2022-12-13T01:36:39.719Z,1.85
2022-12-13T01:39:15.006Z,2.08
2022-12-13T01:41:45.607Z,1.77
2022-12-13T01:45:06.183Z,2.05
2022-12-13T01:47:41.901Z,3.13
2022-12-13T01:50:13.584Z,2.88
2022-12-13T01:52:42.938Z,2.85
2022-12-13T01:55:13.394Z,1.70
2022-12-13T01:57:45.835Z,1.98
2022-12-13T02:00:16.327Z,2.63
2022-12-13T02:02:47.619Z,1.88
2022-12-13T02:05:22.414Z,4.68
2022-12-13T02:07:51.501Z,2.30
2022-12-13T02:10:20.144Z,3.25
2022-12-13T02:12:52.167Z,2.58
2022-12-13T02:15:21.931Z,1.85
2022-12-13T02:18:13.803Z,1.42
2022-12-13T02:21:14.931Z,2.70
2022-12-13T02:24:28.776Z,2.00
2022-12-13T02:27:30.213Z,1.98
2022-12-13T02:30:20.831Z,2.10
2022-12-13T02:33:05.892Z,1.90
2022-12-13T02:35:40.426Z,1.20
2022-12-13T02:38:20.067Z,1.70
2022-12-13T02:41:00.843Z,1.58
2022-12-13T02:43:34.070Z,3.72
2022-12-13T02:46:06.419Z,1.60
2022-12-13T02:48:38.339Z,1.60
2022-12-13T02:51:08.019Z,2.30
2022-12-13T02:53:37.867Z,1.50
2022-12-13T02:56:06.361Z,2.15
2022-12-13T02:58:38.744Z,2.00
2022-12-13T03:01:28.913Z,1.65
2022-12-13T03:04:05.679Z,2.13
2022-12-13T03:06:46.409Z,1.40
2022-12-13T03:09:28.132Z,2.13
2022-12-13T03:12:40.741Z,1.38
2022-12-13T03:15:16.406Z,1.40
2022-12-13T03:17:51.923Z,2.13
2022-12-13T03:20:25.363Z,1.60
2022-12-13T03:22:53.722Z,1.90
2022-12-13T03:25:31.377Z,2.03
2022-12-13T03:28:02.133Z,2.95
2022-12-13T03:30:31.318Z,2.15
2022-12-13T03:33:01.447Z,1.20
2022-12-13T03:35:35.031Z,2.00
2022-12-13T03:38:23.062Z,1.27
2022-12-13T03:40:53.898Z,2.15
2022-12-13T03:43:23.060Z,2.05
2022-12-13T03:45:52.252Z,1.45
2022-12-13T03:48:23.627Z,2.15
2022-12-13T03:50:53.888Z,1.35
2022-12-13T03:53:33.320Z,1.58
2022-12-13T03:56:04.368Z,2.15
2022-12-13T03:58:35.349Z,1.80
2022-12-13T04:01:10.950Z,1.90
2022-12-13T04:03:42.015Z,1.40
2022-12-13T04:06:10.645Z,1.60
2022-12-13T04:08:40.130Z,1.30
2022-12-13T04:11:22.798Z,1.73
2022-12-13T04:13:50.889Z,1.27
2022-12-13T04:16:18.971Z,1.70
2022-12-13T04:18:48.437Z,1.70
2022-12-13T04:21:16.555Z,1.42
2022-12-13T04:23:44.782Z,1.30
2022-12-13T04:26:13.090Z,1.45
2022-12-13T04:28:41.131Z,2.25
2022-12-13T04:31:09.249Z,1.48
2022-12-13T04:33:39.635Z,1.45
2022-12-13T04:36:10.038Z,2.10
2022-12-13T04:38:38.049Z,2.50
2022-12-13T04:41:14.250Z,1.48
2022-12-13T04:43:42.313Z,1.40
2022-12-13T04:46:10.420Z,1.50
2022-12-13T04:48:38.547Z,1.45
2022-12-13T04:51:07.196Z,1.80
2022-12-13T04:53:36.852Z,1.90
2022-12-13T04:56:05.877Z,1.20
2022-12-13T04:58:34.103Z,1.95
2022-12-13T05:01:02.188Z,1.50
2022-12-13T05:03:30.365Z,1.95
2022-12-13T05:05:58.376Z,1.63
2022-12-13T05:08:26.460Z,1.17
2022-12-13T05:10:57.061Z,2.35
2022-12-13T05:13:25.076Z,1.42
2022-12-13T05:15:56.582Z,1.80
2022-12-13T05:18:24.601Z,1.55
2022-12-13T05:20:54.158Z,1.83
2022-12-13T05:23:25.267Z,2.40
2022-12-13T05:25:53.371Z,1.63
2022-12-13T05:28:27.541Z,1.60
2022-12-13T05:30:58.553Z,1.50
2022-12-13T05:33:27.355Z,1.23
2022-12-13T05:36:00.507Z,2.03
2022-12-13T05:38:30.145Z,1.50
2022-12-13T05:40:58.333Z,1.90
2022-12-13T05:43:41.936Z,1.63
2022-12-13T05:46:12.226Z,1.40
2022-12-13T05:48:40.592Z,2.10
2022-12-13T05:51:09.909Z,1.13
2022-12-13T05:53:40.560Z,1.50
2022-12-13T05:56:09.034Z,1.42
2022-12-13T05:58:39.965Z,1.40
2022-12-13T06:01:10.390Z,1.38
2022-12-13T06:03:38.787Z,1.05
2022-12-13T06:06:08.585Z,1.70
2022-12-13T06:08:37.145Z,1.38
2022-12-13T06:11:10.725Z,1.20
2022-12-13T06:13:43.248Z,2.05
2022-12-13T06:16:23.272Z,2.38
2022-12-13T06:19:03.658Z,1.17
2022-12-13T06:21:43.755Z,1.40
2022-12-13T06:24:15.348Z,1.58
2022-12-13T06:26:45.137Z,1.70
2022-12-13T06:29:22.746Z,1.65
2022-12-13T06:32:02.370Z,2.25
2022-12-13T06:34:33.221Z,2.08
2022-12-13T06:37:02.792Z,2.60
2022-12-13T06:39:32.388Z,2.38
2022-12-13T06:42:02.812Z,1.65
2022-12-13T06:44:32.200Z,2.33
2022-12-13T06:47:11.164Z,3.08
2022-12-13T06:49:43.396Z,2.25
2022-12-13T06:52:13.280Z,4.07
2022-12-13T06:54:41.675Z,2.50
2022-12-13T06:57:10.329Z,1.48
2022-12-13T06:59:40.574Z,2.08
2022-12-13T07:02:15.488Z,3.05
2022-12-13T07:04:55.098Z,3.53
2022-12-13T07:07:23.447Z,2.88
2022-12-13T07:09:51.594Z,2.70
2022-12-13T07:12:21.053Z,2.30
2022-12-13T07:14:50.551Z,2.22
2022-12-13T07:17:32.840Z,1.80
2022-12-13T07:20:04.673Z,2.40
2022-12-13T07:22:34.738Z,2.25
2022-12-13T07:25:04.839Z,1.25
2022-12-13T07:27:33.114Z,2.25
2022-12-13T07:30:03.547Z,2.25
2022-12-13T07:32:31.601Z,2.63
2022-12-13T07:34:59.604Z,2.30
2022-12-13T07:37:30.323Z,1.40
2022-12-13T07:40:03.916Z,1.80
2022-12-13T07:42:33.031Z,1.60
2022-12-13T07:45:02.505Z,1.70
2022-12-13T07:47:31.198Z,1.80
2022-12-13T07:49:59.655Z,1.70
2022-12-13T07:52:29.789Z,2.25
2022-12-13T07:54:57.756Z,1.85
2022-12-13T07:57:25.828Z,2.20
2022-12-13T07:59:53.910Z,1.33
2022-12-13T08:02:23.404Z,2.47
2022-12-13T08:04:54.765Z,2.17
2022-12-13T08:07:23.996Z,2.13
2022-12-13T08:09:53.283Z,1.90
2022-12-13T08:12:22.930Z,1.55
2022-12-13T08:14:53.042Z,1.80
2022-12-13T08:17:23.381Z,1.83
2022-12-13T08:19:51.376Z,2.25
2022-12-13T08:22:23.712Z,1.70
2022-12-13T08:24:52.416Z,2.60
2022-12-13T08:27:20.426Z,1.55
2022-12-13T08:29:48.395Z,1.65
2022-12-13T08:32:16.465Z,1.80
2022-12-13T08:34:46.545Z,2.35
2022-12-13T08:37:14.971Z,1.70
2022-12-13T08:39:44.483Z,2.05
2022-12-13T08:42:18.211Z,1.90
2022-12-13T08:44:48.482Z,2.83
2022-12-13T08:47:24.519Z,1.50
2022-12-13T08:50:02.622Z,1.80
2022-12-13T08:52:31.742Z,1.35
2022-12-13T08:54:59.755Z,2.47
2022-12-13T08:57:27.700Z,1.90
2022-12-13T08:59:55.677Z,1.48
2022-12-13T09:02:23.672Z,2.13
2022-12-13T09:04:51.991Z,1.85
2022-12-13T09:07:21.421Z,1.60
2022-12-13T09:09:54.957Z,2.17
2022-12-13T09:12:30.066Z,1.90
2022-12-13T09:15:01.651Z,1.85
2022-12-13T09:17:36.676Z,3.00
2022-12-13T09:20:28.931Z,2.17
2022-12-13T09:23:02.157Z,2.22
2022-12-13T09:25:36.607Z,1.92
2022-12-13T09:28:06.793Z,2.00
2022-12-13T09:30:34.877Z,2.83
2022-12-13T09:33:18.128Z,2.65
2022-12-13T09:35:51.936Z,2.40
2022-12-13T09:38:22.159Z,2.72
2022-12-13T09:40:58.862Z,2.13
2022-12-13T09:43:33.861Z,2.35
2022-12-13T09:46:23.228Z,2.28
2022-12-13T09:49:01.679Z,2.50
2022-12-13T09:51:39.644Z,2.00
2022-12-13T09:54:19.616Z,3.05
2022-12-13T09:56:50.898Z,5.35
2022-12-13T09:59:24.987Z,6.55
2022-12-13T10:01:54.517Z,6.45
2022-12-13T10:04:23.037Z,5.90
2022-12-13T10:06:54.240Z,5.13
2022-12-13T10:09:24.146Z,5.00
2022-12-13T10:11:54.185Z,5.00
2022-12-13T10:14:28.699Z,4.07
2022-12-13T10:17:01.180Z,3.65
2022-12-13T10:19:34.721Z,4.30
2022-12-13T10:22:04.385Z,4.03
2022-12-13T10:24:51.984Z,3.80
2022-12-13T10:27:22.427Z,4.60
2022-12-13T10:30:11.833Z,4.13
2022-12-13T10:32:54.980Z,4.53
2022-12-13T10:35:26.451Z,4.70
2022-12-13T10:37:55.448Z,5.50
2022-12-13T10:40:33.593Z,7.00
2022-12-13T10:43:24.422Z,5.87
2022-12-13T10:46:00.208Z,5.67
2022-12-13T10:48:39.755Z,6.37
2022-12-13T10:51:09.719Z,6.60
2022-12-13T10:53:47.454Z,6.47
2022-12-13T10:56:22.613Z,6.00
2022-12-13T10:59:15.146Z,6.30
2022-12-13T11:01:45.329Z,6.00
2022-12-13T11:04:27.558Z,6.00
2022-12-13T11:06:57.732Z,6.33
2022-12-13T11:09:28.360Z,5.67
2022-12-13T11:11:59.810Z,5.73
2022-12-13T11:14:32.658Z,5.57
2022-12-13T11:17:08.150Z,8.00
2022-12-13T11:19:40.945Z,5.93
2022-12-13T11:22:10.483Z,4.43
2022-12-13T11:24:42.192Z,5.53
2022-12-13T11:27:29.585Z,5.40
2022-12-13T11:30:20.742Z,5.40
2022-12-13T11:33:15.546Z,7.00
2022-12-13T11:36:00.248Z,6.63
2022-12-13T11:38:33.418Z,6.43
2022-12-13T11:41:11.262Z,5.40
2022-12-13T11:43:45.145Z,5.53
2022-12-13T11:46:23.150Z,4.47
2022-12-13T11:48:57.445Z,5.27
2022-12-13T11:51:28.460Z,5.70
2022-12-13T11:54:00.932Z,5.93
2022-12-13T11:56:34.177Z,6.63
2022-12-13T11:59:28.986Z,6.00
2022-12-13T12:02:07.029Z,5.63
2022-12-13T12:04:51.553Z,6.77
2022-12-13T12:07:33.222Z,7.17
2022-12-13T12:10:13.154Z,6.37
2022-12-13T12:12:46.963Z,8.70
2022-12-13T12:15:26.698Z,7.40
2022-12-13T12:17:56.268Z,6.23
2022-12-13T12:20:44.950Z,7.55
2022-12-13T12:23:20.860Z,6.30
2022-12-13T12:25:53.932Z,7.22
2022-12-13T12:28:30.999Z,6.07
2022-12-13T12:31:09.965Z,5.22
2022-12-13T12:33:47.434Z,3.80
2022-12-13T12:36:33.131Z,4.07
2022-12-13T12:39:20.521Z,3.95
2022-12-13T12:42:10.996Z,4.55
2022-12-13T12:44:48.185Z,4.82
2022-12-13T12:47:57.780Z,3.75
2022-12-13T12:50:31.138Z,4.13
2022-12-13T12:53:08.086Z,5.43
2022-12-13T12:55:49.803Z,5.75
2022-12-13T12:58:27.964Z,5.07
2022-12-13T13:01:05.779Z,5.97
2022-12-13T13:03:38.644Z,4.38
2022-12-13T13:06:13.116Z,5.45
2022-12-13T13:08:51.617Z,5.35
2022-12-13T13:11:25.996Z,5.05
2022-12-13T13:14:06.594Z,4.95
2022-12-13T13:16:40.035Z,5.30
2022-12-13T13:19:43.648Z,5.78
2022-12-13T13:22:32.779Z,5.53
2022-12-13T13:25:32.320Z,5.07
2022-12-13T13:28:06.805Z,6.50
2022-12-13T13:30:36.345Z,7.28
2022-12-13T13:33:04.527Z,5.43
2022-12-13T13:35:50.199Z,7.53
2022-12-13T13:38:52.231Z,7.28
2022-12-13T13:41:53.974Z,7.20
2022-12-13T13:44:58.084Z,7.32
2022-12-13T13:47:38.945Z,7.05
2022-12-13T13:50:42.392Z,6.85
2022-12-13T13:53:44.239Z,5.88
2022-12-13T13:56:35.658Z,5.75
2022-12-13T13:59:50.751Z,4.97
2022-12-13T14:02:58.828Z,5.55
2022-12-13T14:05:57.571Z,5.53
2022-12-13T14:08:43.516Z,4.65
2022-12-13T14:11:35.600Z,5.05
2022-12-13T14:14:38.498Z,4.03
2022-12-13T14:17:51.828Z,4.60
2022-12-13T14:20:43.242Z,4.82
2022-12-13T14:23:21.802Z,4.10
2022-12-13T14:26:07.876Z,4.30
2022-12-13T14:28:46.108Z,4.43
2022-12-13T14:31:21.805Z,3.65
2022-12-13T14:33:52.147Z,5.50
2022-12-13T14:36:28.668Z,4.97
2022-12-13T14:39:02.156Z,4.22
2022-12-13T14:41:31.588Z,5.15
2022-12-13T14:44:15.048Z,3.85
2022-12-13T14:46:50.923Z,5.05
2022-12-13T14:49:19.874Z,4.05
2022-12-13T14:51:52.548Z,3.85
2022-12-13T14:54:26.077Z,4.40
2022-12-13T14:57:00.917Z,5.70
2022-12-13T14:59:29.823Z,4.65
2022-12-13T15:02:02.542Z,3.97
2022-12-13T15:04:32.546Z,4.60
2022-12-13T15:07:07.717Z,4.45
2022-12-13T15:09:38.940Z,4.95
2022-12-13T15:12:24.001Z,5.68
2022-12-13T15:15:02.736Z,4.90
2022-12-13T15:17:33.899Z,4.22
2022-12-13T15:20:24.550Z,5.13
2022-12-13T15:23:06.118Z,4.72
2022-12-13T15:25:37.306Z,3.78
2022-12-13T15:28:07.952Z,3.65
2022-12-13T15:30:37.115Z,4.22
2022-12-13T15:33:07.829Z,3.30
2022-12-13T15:35:37.923Z,3.40
2022-12-13T15:38:06.057Z,4.85
2022-12-13T15:40:34.929Z,5.30
2022-12-13T15:43:03.075Z,5.15
2022-12-13T15:45:37.067Z,4.30
2022-12-13T15:48:06.229Z,4.00
2022-12-13T15:50:37.106Z,4.65
2022-12-13T15:53:07.958Z,4.43
2022-12-13T15:55:37.786Z,4.47
2022-12-13T15:58:26.825Z,3.97
2022-12-13T16:00:56.412Z,3.47
2022-12-13T16:03:27.032Z,3.30
2022-12-13T16:05:57.153Z,3.40
2022-12-13T16:08:28.792Z,4.05
2022-12-13T16:10:58.278Z,3.45
2022-12-13T16:13:28.086Z,4.10
2022-12-13T16:16:00.121Z,2.67
2022-12-13T16:18:45.706Z,2.78
2022-12-13T16:21:14.338Z,3.40
2022-12-13T16:23:48.340Z,4.40
2022-12-13T16:26:23.589Z,3.67
2022-12-13T16:28:51.745Z,2.95
2022-12-13T16:31:23.277Z,4.45
2022-12-13T16:33:51.536Z,4.57
2022-12-13T16:36:19.627Z,2.85
2022-12-13T16:38:47.776Z,3.80
2022-12-13T16:41:16.331Z,3.40
2022-12-13T16:43:52.277Z,2.85
2022-12-13T16:47:12.142Z,3.30
2022-12-13T16:49:20.231Z,4.57
2022-12-13T16:51:49.207Z,4.65
2022-12-13T16:54:18.237Z,5.05
2022-12-13T16:56:46.403Z,4.28
2022-12-13T16:59:15.581Z,4.50
2022-12-13T17:01:45.899Z,4.22
2022-12-13T17:04:19.966Z,5.30
2022-12-13T17:06:50.908Z,5.07
2022-12-13T17:09:23.005Z,6.38
2022-12-13T17:11:53.673Z,5.57
2022-12-13T17:14:21.705Z,5.55
2022-12-13T17:16:51.139Z,5.57
2022-12-13T17:19:19.720Z,4.85
2022-12-13T17:21:49.199Z,4.38
2022-12-13T17:24:17.486Z,6.53
2022-12-13T17:26:54.738Z,4.93
2022-12-13T17:29:24.919Z,3.30
2022-12-13T17:31:54.485Z,4.38
2022-12-13T17:34:22.832Z,4.18
2022-12-13T17:36:50.911Z,3.85
2022-12-13T17:39:19.137Z,4.70
2022-12-13T17:41:54.597Z,3.53
2022-12-13T17:44:24.911Z,3.55
2022-12-13T17:46:55.649Z,3.15
2022-12-13T17:49:24.336Z,3.85
2022-12-13T17:51:54.090Z,3.67
2022-12-13T17:54:23.544Z,3.80
2022-12-13T17:56:52.314Z,3.58
2022-12-13T17:59:20.881Z,3.28
2022-12-13T18:01:49.184Z,4.53
2022-12-13T18:04:18.697Z,2.50
2022-12-13T18:06:46.882Z,3.72
2022-12-13T18:09:15.195Z,4.15
2022-12-13T18:11:43.273Z,2.33
2022-12-13T18:14:11.265Z,5.15
2022-12-13T18:16:40.864Z,2.05
2022-12-13T18:19:12.204Z,3.95
2022-12-13T18:21:43.101Z,2.13
2022-12-13T18:24:12.284Z,2.85
2022-12-13T18:26:40.400Z,2.05
2022-12-13T18:29:08.596Z,2.72
2022-12-13T18:31:36.810Z,2.22
2022-12-13T18:34:05.074Z,1.95
2022-12-13T18:36:33.088Z,2.70
2022-12-13T18:39:02.947Z,2.95
2022-12-13T18:41:31.693Z,3.35
2022-12-13T18:44:01.778Z,2.70
2022-12-13T18:46:31.617Z,2.58
2022-12-13T18:49:00.387Z,3.08
2022-12-13T18:51:28.856Z,3.13
2022-12-13T18:53:57.367Z,2.50
2022-12-13T18:56:26.867Z,2.70
2022-12-13T18:58:55.490Z,3.33
2022-12-13T19:01:26.882Z,3.47
2022-12-13T19:03:55.737Z,2.35
2022-12-13T19:06:25.787Z,2.92
2022-12-13T19:08:56.196Z,2.38
2022-12-13T19:11:29.352Z,2.55
2022-12-13T19:13:57.717Z,3.20
2022-12-13T19:16:27.141Z,2.65
2022-12-13T19:18:55.528Z,3.53
2022-12-13T19:21:23.858Z,5.10
2022-12-13T19:23:57.373Z,2.53
2022-12-13T19:26:28.596Z,4.32
2022-12-13T19:28:58.939Z,2.97
2022-12-13T19:31:31.843Z,2.65
2022-12-13T19:34:01.704Z,3.55
2022-12-13T19:36:29.981Z,3.35
2022-12-13T19:38:58.010Z,3.65
2022-12-13T19:41:28.019Z,2.40
2022-12-13T19:43:56.056Z,3.60
2022-12-13T19:46:24.599Z,2.90
2022-12-13T19:48:52.604Z,3.55
2022-12-13T19:51:22.676Z,4.22
2022-12-13T19:53:50.919Z,3.55
2022-12-13T19:56:20.575Z,3.65
2022-12-13T19:58:51.080Z,3.22
2022-12-13T20:01:19.372Z,2.38
2022-12-13T20:03:47.995Z,2.70
2022-12-13T20:06:18.044Z,2.72
2022-12-13T20:08:46.271Z,2.28
2022-12-13T20:11:15.714Z,2.45
2022-12-13T20:13:44.172Z,4.22
2022-12-13T20:16:18.979Z,5.13
2022-12-13T20:18:47.987Z,2.42
2022-12-13T20:21:16.598Z,2.83
2022-12-13T20:23:49.004Z,3.40
2022-12-13T20:26:20.065Z,4.53
2022-12-13T20:28:48.377Z,3.72
2022-12-13T20:31:19.748Z,4.40
2022-12-13T20:33:48.373Z,6.95
2022-12-13T20:36:24.598Z,6.25
2022-12-13T20:38:55.630Z,4.30
2022-12-13T20:41:26.028Z,3.10
2022-12-13T20:43:54.967Z,2.53
2022-12-13T20:46:25.787Z,2.33
2022-12-13T20:48:55.090Z,2.72
2022-12-13T20:51:25.494Z,3.10
2022-12-13T20:53:54.792Z,2.58
2022-12-13T20:56:24.708Z,1.75
2022-12-13T20:58:53.707Z,1.98
2022-12-13T21:01:25.304Z,1.90
2022-12-13T21:03:55.288Z,2.03
2022-12-13T21:06:24.099Z,4.57
2022-12-13T21:08:52.490Z,1.92
2022-12-13T21:11:27.774Z,2.83
2022-12-13T21:14:02.469Z,1.75
2022-12-13T21:16:38.593Z,2.78
2022-12-13T21:19:08.666Z,1.67
2022-12-13T21:21:39.180Z,2.10
2022-12-13T21:24:10.178Z,1.88
2022-12-13T21:26:38.332Z,1.98
2022-12-13T21:29:10.599Z,1.85
2022-12-13T21:31:41.534Z,2.78
2022-12-13T21:34:10.395Z,1.98
2022-12-13T21:36:40.161Z,2.03
2022-12-13T21:39:12.411Z,2.50
2022-12-13T21:41:41.128Z,2.30
2022-12-13T21:44:10.858Z,1.95
2022-12-13T21:47:22.303Z,2.92
2022-12-13T21:49:28.917Z,2.17
2022-12-13T21:51:56.986Z,3.63
2022-12-13T21:54:25.098Z,3.15
2022-12-13T21:57:10.490Z,2.60
2022-12-13T21:59:38.832Z,3.45
2022-12-13T22:02:16.195Z,3.85
2022-12-13T22:04:46.125Z,4.35
2022-12-13T22:07:17.368Z,4.25
2022-12-13T22:09:46.544Z,5.82
2022-12-13T22:12:21.670Z,4.00
2022-12-13T22:14:50.689Z,4.95
2022-12-13T22:17:29.761Z,4.70
2022-12-13T22:20:03.648Z,4.75
2022-12-13T22:22:32.377Z,4.72
2022-12-13T22:25:03.624Z,3.35
2022-12-13T22:27:32.033Z,3.65
2022-12-13T22:30:00.320Z,4.65
2022-12-13T22:32:31.785Z,5.85
2022-12-13T22:35:00.117Z,3.45
2022-12-13T22:37:28.632Z,2.90
2022-12-13T22:39:58.858Z,5.45
2022-12-13T22:42:27.248Z,4.70
2022-12-13T22:44:55.684Z,3.97
2022-12-13T22:47:23.995Z,2.58
2022-12-13T22:49:53.670Z,4.03
2022-12-13T22:52:21.897Z,3.25
2022-12-13T22:54:50.248Z,3.38
2022-12-13T22:57:18.488Z,2.85
2022-12-13T22:59:46.845Z,6.85
2022-12-13T23:02:15.519Z,3.97
2022-12-13T23:04:43.855Z,2.42
2022-12-13T23:07:13.506Z,2.83
2022-12-13T23:09:41.749Z,2.53
2022-12-13T23:12:29.385Z,4.50
2022-12-13T23:14:57.572Z,2.78
2022-12-13T23:17:25.786Z,2.72
2022-12-13T23:19:54.173Z,3.10
2022-12-13T23:22:25.217Z,2.20
2022-12-13T23:24:54.419Z,3.05
2022-12-13T23:27:24.743Z,1.92
2022-12-13T23:29:53.179Z,1.73
2022-12-13T23:32:21.294Z,1.85
2022-12-13T23:34:49.442Z,2.47
2022-12-13T23:37:17.581Z,2.30
2022-12-13T23:39:48.049Z,2.58
2022-12-13T23:42:16.208Z,3.05
2022-12-13T23:44:44.316Z,1.92
2022-12-13T23:47:12.446Z,1.88
2022-12-13T23:49:40.476Z,2.03
2022-12-13T23:52:08.715Z,2.30
2022-12-13T23:54:36.907Z,2.45
2022-12-13T23:57:06.442Z,2.75
2022-12-13T23:59:34.624Z,1.95
